createdAt,value
2023-04-02T00:02:23.434Z,81.79
2023-04-02T00:05:18.250Z,81.87
2023-04-02T00:07:54.301Z,81.78
2023-04-02T00:10:35.336Z,81.96
2023-04-02T00:13:22.688Z,81.78
2023-04-02T00:15:57.047Z,82.05
2023-04-02T00:18:26.754Z,82.03
2023-04-02T00:21:21.270Z,82.04
2023-04-02T00:23:49.186Z,82.09
2023-04-02T00:26:33.338Z,82.04
2023-04-02T00:29:03.881Z,82.00
2023-04-02T00:31:33.313Z,81.97
2023-04-02T00:34:04.939Z,81.89
2023-04-02T00:36:34.756Z,81.94
2023-04-02T00:39:08.723Z,82.04
2023-04-02T00:41:38.851Z,82.13
2023-04-02T00:44:11.111Z,82.10
2023-04-02T00:46:49.863Z,82.18
2023-04-02T00:49:33.133Z,82.22
2023-04-02T00:52:05.073Z,82.13
2023-04-02T00:54:39.129Z,82.19
2023-04-02T00:57:16.224Z,82.07
2023-04-02T00:59:54.220Z,82.14
2023-04-02T01:02:28.198Z,82.29
2023-04-02T01:05:18.889Z,82.24
2023-04-02T01:07:50.099Z,82.28
2023-04-02T01:10:48.811Z,82.33
2023-04-02T01:13:32.115Z,82.33
2023-04-02T01:16:11.839Z,82.34
2023-04-02T01:18:52.991Z,82.51
2023-04-02T01:21:37.353Z,82.46
2023-04-02T01:24:08.790Z,82.61
2023-04-02T01:26:44.819Z,82.68
2023-04-02T01:29:20.510Z,82.69
2023-04-02T01:31:51.142Z,82.61
2023-04-02T01:34:25.074Z,82.89
2023-04-02T01:37:15.313Z,82.87
2023-04-02T01:39:52.434Z,82.81
2023-04-02T01:42:52.073Z,82.86
2023-04-02T01:45:21.962Z,82.77
2023-04-02T01:47:51.225Z,82.69
2023-04-02T01:50:31.905Z,82.51
2023-04-02T01:53:04.613Z,82.46
2023-04-02T01:55:52.825Z,82.38
2023-04-02T01:58:25.665Z,82.35
2023-04-02T02:01:01.756Z,82.34
2023-04-02T02:03:30.873Z,82.46
2023-04-02T02:05:59.798Z,82.40
2023-04-02T02:08:32.868Z,82.35
2023-04-02T02:11:02.338Z,82.16
2023-04-02T02:13:32.287Z,82.42
2023-04-02T02:16:01.837Z,82.38
2023-04-02T02:18:31.250Z,82.44
2023-04-02T02:21:01.456Z,82.53
2023-04-02T02:23:30.420Z,82.35
2023-04-02T02:25:58.907Z,82.44
2023-04-02T02:28:34.359Z,82.40
2023-04-02T02:31:06.797Z,82.39
2023-04-02T02:33:42.164Z,82.32
2023-04-02T02:36:36.993Z,82.42
2023-04-02T02:39:13.942Z,82.41
2023-04-02T02:42:03.034Z,82.19
2023-04-02T02:44:38.221Z,82.22
2023-04-02T02:47:13.010Z,82.18
2023-04-02T02:49:44.629Z,82.19
2023-04-02T02:52:17.320Z,82.37
2023-04-02T02:55:04.942Z,82.48
2023-04-02T02:57:50.895Z,82.43
2023-04-02T03:00:20.159Z,82.44
2023-04-02T03:02:50.184Z,82.33
2023-04-02T03:05:22.362Z,82.38
2023-04-02T03:07:54.140Z,82.21
2023-04-02T03:10:39.563Z,82.39
2023-04-02T03:13:35.647Z,82.60
2023-04-02T03:16:16.822Z,82.57
2023-04-02T03:19:07.730Z,82.65
2023-04-02T03:21:50.203Z,82.49
2023-04-02T03:24:32.926Z,82.46
2023-04-02T03:27:13.612Z,82.46
2023-04-02T03:29:49.687Z,82.49
2023-04-02T03:32:24.187Z,82.55
2023-04-02T03:35:10.805Z,82.56
2023-04-02T03:37:45.533Z,82.59
2023-04-02T03:40:31.813Z,82.74
2023-04-02T03:43:17.086Z,82.72
2023-04-02T03:45:51.067Z,82.91
2023-04-02T03:48:34.253Z,83.15
2023-04-02T03:51:31.768Z,83.10
2023-04-02T03:54:02.719Z,83.39
2023-04-02T03:56:40.466Z,83.63
2023-04-02T03:59:26.975Z,83.76
2023-04-02T04:02:01.087Z,83.80
2023-04-02T04:04:32.141Z,83.92
2023-04-02T04:07:01.983Z,83.96
2023-04-02T04:09:35.648Z,84.00
2023-04-02T04:12:21.868Z,84.19
2023-04-02T04:15:14.029Z,84.21
2023-04-02T04:18:02.575Z,84.05
2023-04-02T04:20:46.249Z,84.08
2023-04-02T04:23:30.180Z,84.22
2023-04-02T04:26:09.735Z,84.19
2023-04-02T04:29:12.561Z,84.32
2023-04-02T04:31:47.538Z,84.46
2023-04-02T04:34:42.345Z,84.52
2023-04-02T04:37:22.131Z,84.43
2023-04-02T04:40:04.205Z,84.44
2023-04-02T04:42:36.524Z,84.52
2023-04-02T04:45:39.624Z,84.52
2023-04-02T04:48:35.308Z,84.59
2023-04-02T04:51:47.511Z,84.60
2023-04-02T04:54:16.593Z,84.55
2023-04-02T04:56:55.833Z,84.66
2023-04-02T04:59:43.765Z,84.64
2023-04-02T05:02:20.019Z,84.54
2023-04-02T05:04:52.967Z,84.50
2023-04-02T05:07:31.708Z,84.45
2023-04-02T05:10:03.784Z,84.44
2023-04-02T05:12:48.653Z,84.56
2023-04-02T05:15:29.775Z,84.54
2023-04-02T05:18:26.035Z,84.61
2023-04-02T05:21:04.308Z,84.61
2023-04-02T05:24:05.138Z,84.51
2023-04-02T05:26:43.915Z,84.52
2023-04-02T05:29:21.238Z,84.71
2023-04-02T05:32:16.628Z,84.74
2023-04-02T05:34:50.680Z,84.88
2023-04-02T05:37:25.912Z,84.59
2023-04-02T05:39:57.045Z,84.77
2023-04-02T05:42:32.354Z,84.60
2023-04-02T05:45:22.062Z,84.59
2023-04-02T05:48:00.318Z,84.55
2023-04-02T05:50:37.599Z,84.53
2023-04-02T05:53:27.376Z,84.50
2023-04-02T05:56:02.088Z,84.59
2023-04-02T05:58:43.944Z,84.52
2023-04-02T06:01:45.508Z,84.58
2023-04-02T06:04:47.533Z,84.41
2023-04-02T06:07:45.293Z,84.49
2023-04-02T06:10:24.826Z,84.47
2023-04-02T06:13:03.872Z,84.57
2023-04-02T06:15:37.353Z,84.33
2023-04-02T06:18:19.276Z,84.45
2023-04-02T06:20:48.550Z,84.49
2023-04-02T06:23:36.221Z,84.40
2023-04-02T06:26:33.872Z,84.36
2023-04-02T06:29:13.704Z,84.20
2023-04-02T06:31:52.533Z,84.01
2023-04-02T06:34:25.102Z,83.81
2023-04-02T06:37:30.790Z,83.79
2023-04-02T06:40:22.260Z,83.74
2023-04-02T06:42:57.744Z,83.72
2023-04-02T06:45:49.886Z,83.66
2023-04-02T06:48:39.757Z,83.60
2023-04-02T06:51:11.511Z,83.82
2023-04-02T06:53:49.306Z,83.57
2023-04-02T06:56:32.452Z,83.65
2023-04-02T06:59:04.719Z,83.58
2023-04-02T07:01:38.393Z,83.60
2023-04-02T07:04:06.980Z,83.67
2023-04-02T07:06:40.700Z,83.72
2023-04-02T07:09:09.098Z,83.52
2023-04-02T07:11:39.815Z,83.50
2023-04-02T07:14:13.228Z,83.40
2023-04-02T07:16:43.047Z,83.44
2023-04-02T07:19:20.707Z,83.44
2023-04-02T07:21:51.121Z,83.30
2023-04-02T07:24:20.854Z,83.47
2023-04-02T07:26:48.935Z,83.40
2023-04-02T07:29:17.621Z,83.52
2023-04-02T07:31:46.224Z,83.54
2023-04-02T07:34:14.379Z,83.57
2023-04-02T07:36:42.304Z,83.55
2023-04-02T07:39:10.424Z,83.56
2023-04-02T07:41:58.844Z,83.57
2023-04-02T07:44:28.085Z,83.70
2023-04-02T07:46:56.342Z,83.72
2023-04-02T07:49:24.500Z,83.78
2023-04-02T07:51:53.482Z,83.86
2023-04-02T07:54:21.470Z,83.96
2023-04-02T07:56:49.568Z,84.19
2023-04-02T07:59:17.840Z,84.18
2023-04-02T08:01:45.885Z,84.14
2023-04-02T08:04:19.961Z,84.11
2023-04-02T08:06:49.342Z,84.18
2023-04-02T08:09:17.698Z,84.22
2023-04-02T08:11:46.814Z,84.27
2023-04-02T08:14:16.180Z,84.29
2023-04-02T08:16:56.405Z,84.43
2023-04-02T08:19:25.291Z,84.44
2023-04-02T08:21:54.901Z,84.62
2023-04-02T08:24:26.268Z,84.32
2023-04-02T08:26:54.954Z,84.10
2023-04-02T08:29:23.126Z,84.17
2023-04-02T08:31:51.391Z,83.94
2023-04-02T08:34:19.579Z,84.00
2023-04-02T08:36:47.754Z,83.85
2023-04-02T08:39:15.836Z,83.84
2023-04-02T08:42:21.788Z,83.58
2023-04-02T08:45:21.159Z,83.45
2023-04-02T08:47:57.437Z,83.07
2023-04-02T08:50:33.271Z,83.02
2023-04-02T08:53:21.393Z,82.98
2023-04-02T08:56:08.658Z,83.08
2023-04-02T08:58:42.344Z,82.96
2023-04-02T09:01:42.692Z,82.83
2023-04-02T09:04:18.983Z,82.86
2023-04-02T09:06:51.590Z,82.91
2023-04-02T09:09:22.302Z,83.01
2023-04-02T09:12:03.596Z,83.06
2023-04-02T09:14:43.103Z,82.84
2023-04-02T09:17:20.605Z,82.16
2023-04-02T09:19:53.599Z,81.95
2023-04-02T09:22:28.576Z,81.95
2023-04-02T09:25:06.597Z,81.98
2023-04-02T09:27:36.746Z,82.26
2023-04-02T09:30:30.030Z,82.17
2023-04-02T09:33:09.425Z,81.96
2023-04-02T09:35:58.140Z,81.52
2023-04-02T09:38:33.228Z,81.54
2023-04-02T09:41:04.878Z,81.60
2023-04-02T09:43:36.410Z,81.55
2023-04-02T09:46:05.009Z,81.56
2023-04-02T09:48:53.501Z,81.61
2023-04-02T09:51:34.786Z,81.70
2023-04-02T09:54:03.170Z,81.48
2023-04-02T09:56:34.228Z,81.52
2023-04-02T09:59:22.237Z,81.27
2023-04-02T10:01:53.640Z,81.22
2023-04-02T10:04:44.247Z,81.31
2023-04-02T10:07:31.613Z,81.45
2023-04-02T10:10:16.788Z,81.73
2023-04-02T10:12:49.793Z,81.96
2023-04-02T10:15:26.025Z,81.92
2023-04-02T10:18:07.434Z,82.02
2023-04-02T10:20:50.502Z,81.84
2023-04-02T10:23:23.590Z,81.59
2023-04-02T10:26:17.648Z,81.54
2023-04-02T10:29:12.767Z,81.66
2023-04-02T10:32:07.102Z,81.79
2023-04-02T10:34:43.358Z,81.94
2023-04-02T10:37:40.838Z,81.98
2023-04-02T10:40:24.396Z,81.73
2023-04-02T10:43:17.098Z,81.81
2023-04-02T10:46:04.185Z,81.99
2023-04-02T10:48:47.675Z,82.08
2023-04-02T10:51:28.261Z,82.14
2023-04-02T10:54:25.103Z,82.12
2023-04-02T10:57:04.425Z,82.09
2023-04-02T10:59:41.443Z,82.07
2023-04-02T11:02:32.267Z,82.13
2023-04-02T11:05:09.126Z,82.50
2023-04-02T11:07:55.252Z,82.22
2023-04-02T11:10:25.533Z,82.33
2023-04-02T11:13:15.096Z,82.40
2023-04-02T11:15:43.312Z,82.48
2023-04-02T11:18:38.968Z,82.33
2023-04-02T11:21:57.276Z,82.37
2023-04-02T11:24:30.354Z,82.50
2023-04-02T11:27:29.827Z,82.62
2023-04-02T11:30:11.780Z,82.67
2023-04-02T11:32:43.178Z,82.92
2023-04-02T11:35:25.455Z,83.14
2023-04-02T11:37:56.513Z,83.25
2023-04-02T11:40:45.220Z,83.32
2023-04-02T11:43:36.150Z,83.58
2023-04-02T11:46:16.682Z,83.42
2023-04-02T11:48:45.460Z,83.47
2023-04-02T11:51:22.938Z,83.24
2023-04-02T11:53:54.091Z,83.37
2023-04-02T11:56:31.209Z,83.47
2023-04-02T11:59:16.782Z,83.55
2023-04-02T12:02:02.450Z,83.69
2023-04-02T12:04:36.554Z,83.90
2023-04-02T12:07:52.454Z,83.98
2023-04-02T12:10:24.570Z,84.16
2023-04-02T12:12:52.747Z,84.46
2023-04-02T12:15:37.129Z,84.63
2023-04-02T12:18:13.887Z,84.73
2023-04-02T12:20:47.650Z,84.68
2023-04-02T12:23:22.244Z,84.80
2023-04-02T12:26:02.400Z,84.87
2023-04-02T12:28:31.507Z,85.08
2023-04-02T12:31:27.582Z,84.99
2023-04-02T12:33:55.927Z,84.99
2023-04-02T12:36:23.992Z,84.85
2023-04-02T12:38:58.191Z,84.62
2023-04-02T12:41:30.315Z,84.59
2023-04-02T12:44:02.624Z,84.60
2023-04-02T12:46:33.845Z,84.75
2023-04-02T12:49:25.791Z,84.83
2023-04-02T12:51:54.609Z,84.86
2023-04-02T12:54:23.000Z,84.96
2023-04-02T12:56:52.026Z,84.90
2023-04-02T12:59:24.502Z,84.74
2023-04-02T13:01:59.372Z,84.85
2023-04-02T13:04:28.438Z,84.90
2023-04-02T13:06:57.071Z,84.97
2023-04-02T13:09:30.333Z,84.98
2023-04-02T13:11:59.602Z,85.04
2023-04-02T13:14:28.394Z,84.87
2023-04-02T13:16:57.261Z,84.98
2023-04-02T13:19:34.023Z,85.07
2023-04-02T13:22:04.201Z,85.17
2023-04-02T13:24:33.593Z,85.35
2023-04-02T13:27:03.429Z,85.45
2023-04-02T13:29:34.041Z,85.39
2023-04-02T13:32:05.892Z,85.44
2023-04-02T13:34:34.044Z,85.43
2023-04-02T13:37:02.613Z,85.46
2023-04-02T13:39:31.252Z,85.43
2023-04-02T13:42:03.112Z,85.35
2023-04-02T13:44:36.464Z,85.45
2023-04-02T13:47:04.739Z,85.44
2023-04-02T13:49:33.331Z,85.53
2023-04-02T13:52:05.176Z,85.54
2023-04-02T13:54:54.478Z,85.67
2023-04-02T13:57:23.044Z,85.62
2023-04-02T13:59:51.048Z,85.58
2023-04-02T14:02:24.652Z,85.57
2023-04-02T14:05:34.885Z,85.63
2023-04-02T14:08:18.955Z,85.50
2023-04-02T14:11:27.604Z,85.50
2023-04-02T14:14:32.583Z,85.49
2023-04-02T14:17:34.004Z,85.51
2023-04-02T14:20:08.813Z,85.49
2023-04-02T14:22:57.686Z,85.21
2023-04-02T14:26:16.155Z,85.23
2023-04-02T14:28:59.165Z,85.02
2023-04-02T14:31:42.094Z,84.91
2023-04-02T14:34:25.385Z,85.11
2023-04-02T14:37:08.635Z,85.03
2023-04-02T14:39:51.408Z,85.05
2023-04-02T14:42:28.181Z,85.30
2023-04-02T14:45:11.929Z,85.22
2023-04-02T14:47:49.462Z,85.23
2023-04-02T14:50:28.468Z,85.33
2023-04-02T14:53:08.782Z,85.36
2023-04-02T14:55:42.826Z,85.42
2023-04-02T14:58:20.172Z,85.27
2023-04-02T15:01:31.241Z,85.29
2023-04-02T15:04:06.999Z,84.94
2023-04-02T15:06:44.013Z,84.76
2023-04-02T15:09:25.894Z,84.81
2023-04-02T15:12:25.652Z,85.04
2023-04-02T15:15:04.632Z,85.11
2023-04-02T15:17:33.025Z,85.04
2023-04-02T15:20:19.085Z,85.04
2023-04-02T15:23:14.960Z,84.98
2023-04-02T15:25:57.084Z,84.86
2023-04-02T15:28:38.412Z,84.88
2023-04-02T15:31:13.963Z,84.96
2023-04-02T15:33:45.769Z,85.05
2023-04-02T15:36:35.682Z,84.65
2023-04-02T15:39:29.547Z,84.80
2023-04-02T15:42:28.463Z,84.92
2023-04-02T15:45:12.255Z,84.83
2023-04-02T15:48:06.105Z,85.02
2023-04-02T15:50:46.358Z,85.03
2023-04-02T15:53:46.284Z,85.09
2023-04-02T15:56:38.053Z,85.20
2023-04-02T15:59:24.262Z,85.23
2023-04-02T16:02:26.765Z,85.05
2023-04-02T16:05:05.095Z,85.13
2023-04-02T16:08:24.863Z,85.16
2023-04-02T16:10:53.019Z,85.19
2023-04-02T16:13:31.849Z,85.14
2023-04-02T16:16:24.488Z,85.25
2023-04-02T16:19:32.489Z,85.02
2023-04-02T16:22:21.754Z,84.87
2023-04-02T16:25:35.932Z,84.94
2023-04-02T16:28:17.483Z,84.89
2023-04-02T16:31:19.890Z,85.03
2023-04-02T16:33:57.335Z,85.07
2023-04-02T16:36:43.852Z,85.22
2023-04-02T16:39:36.809Z,85.50
2023-04-02T16:42:22.150Z,85.42
2023-04-02T16:44:50.508Z,85.32
2023-04-02T16:47:56.615Z,85.47
2023-04-02T16:50:55.817Z,85.56
2023-04-02T16:53:58.326Z,85.54
2023-04-02T16:56:35.680Z,85.65
2023-04-02T16:59:20.311Z,85.73
2023-04-02T17:02:04.246Z,85.72
2023-04-02T17:04:35.164Z,85.78
2023-04-02T17:07:26.950Z,85.80
2023-04-02T17:10:32.934Z,85.89
2023-04-02T17:13:40.621Z,85.96
2023-04-02T17:16:08.685Z,85.93
2023-04-02T17:18:38.539Z,86.14
2023-04-02T17:21:11.453Z,86.19
2023-04-02T17:23:56.355Z,86.31
2023-04-02T17:26:29.244Z,86.26
2023-04-02T17:29:01.761Z,86.32
2023-04-02T17:31:37.551Z,86.27
2023-04-02T17:34:14.409Z,86.42
2023-04-02T17:37:00.274Z,86.44
2023-04-02T17:39:47.439Z,86.42
2023-04-02T17:42:39.823Z,86.55
2023-04-02T17:45:17.134Z,86.58
2023-04-02T17:47:54.610Z,86.71
2023-04-02T17:50:41.213Z,86.59
2023-04-02T17:53:29.574Z,86.74
2023-04-02T17:56:17.532Z,86.80
2023-04-02T17:59:12.021Z,86.82
2023-04-02T18:02:04.754Z,86.64
2023-04-02T18:04:48.170Z,86.63
2023-04-02T18:07:22.151Z,86.64
2023-04-02T18:09:55.690Z,86.84
2023-04-02T18:12:41.427Z,86.77
2023-04-02T18:15:23.499Z,86.80
2023-04-02T18:18:06.484Z,86.73
2023-04-02T18:21:02.273Z,86.83
2023-04-02T18:23:36.637Z,86.78
2023-04-02T18:26:17.325Z,86.68
2023-04-02T18:29:03.926Z,86.64
2023-04-02T18:31:53.453Z,86.55
2023-04-02T18:34:53.492Z,86.73
2023-04-02T18:37:27.782Z,86.59
2023-04-02T18:40:22.367Z,86.71
2023-04-02T18:43:06.265Z,86.69
2023-04-02T18:45:55.729Z,86.76
2023-04-02T18:48:41.260Z,86.81
2023-04-02T18:51:20.444Z,86.73
2023-04-02T18:53:55.341Z,86.81
2023-04-02T18:56:24.754Z,86.84
2023-04-02T18:59:02.234Z,86.71
2023-04-02T19:01:39.178Z,86.74
2023-04-02T19:04:14.925Z,86.77
2023-04-02T19:06:47.408Z,86.73
2023-04-02T19:09:22.482Z,86.78
2023-04-02T19:11:53.150Z,86.79
2023-04-02T19:14:23.528Z,86.86
2023-04-02T19:17:03.144Z,86.84
2023-04-02T19:19:54.448Z,86.83
2023-04-02T19:22:36.618Z,86.70
2023-04-02T19:25:18.949Z,86.82
2023-04-02T19:28:05.354Z,86.87
2023-04-02T19:30:51.886Z,86.82
2023-04-02T19:33:42.565Z,86.76
2023-04-02T19:36:22.502Z,86.71
2023-04-02T19:39:05.106Z,86.86
2023-04-02T19:41:51.869Z,86.71
2023-04-02T19:44:21.042Z,86.59
2023-04-02T19:46:51.655Z,86.67
2023-04-02T19:49:29.526Z,86.59
2023-04-02T19:51:58.314Z,86.61
2023-04-02T19:54:26.788Z,86.52
2023-04-02T19:56:55.082Z,86.56
2023-04-02T19:59:23.521Z,86.49
2023-04-02T20:01:51.715Z,86.57
2023-04-02T20:04:19.925Z,86.41
2023-04-02T20:06:48.207Z,86.35
2023-04-02T20:09:16.481Z,86.37
2023-04-02T20:11:44.846Z,86.46
2023-04-02T20:14:12.935Z,86.39
2023-04-02T20:16:42.226Z,86.16
2023-04-02T20:19:11.345Z,86.37
2023-04-02T20:21:39.555Z,86.32
2023-04-02T20:24:08.146Z,86.14
2023-04-02T20:26:36.830Z,86.10
2023-04-02T20:29:04.896Z,86.12
2023-04-02T20:31:34.212Z,86.11
2023-04-02T20:34:05.173Z,86.14
2023-04-02T20:36:33.861Z,85.91
2023-04-02T20:39:01.989Z,85.91
2023-04-02T20:41:30.070Z,85.83
2023-04-02T20:43:58.215Z,85.67
2023-04-02T20:46:26.490Z,85.70
2023-04-02T20:48:54.565Z,85.56
2023-04-02T20:51:22.972Z,85.40
2023-04-02T20:53:50.887Z,85.28
2023-04-02T20:56:20.579Z,85.48
2023-04-02T20:58:49.558Z,85.28
2023-04-02T21:01:21.520Z,85.29
2023-04-02T21:03:53.840Z,85.30
2023-04-02T21:06:23.661Z,85.16
2023-04-02T21:08:52.766Z,85.13
2023-04-02T21:11:22.482Z,84.88
2023-04-02T21:13:51.207Z,84.81
2023-04-02T21:16:21.100Z,84.72
2023-04-02T21:18:53.348Z,84.51
2023-04-02T21:21:23.120Z,84.43
2023-04-02T21:24:03.581Z,84.13
2023-04-02T21:26:35.008Z,83.87
2023-04-02T21:29:04.078Z,84.15
2023-04-02T21:31:37.781Z,84.01
2023-04-02T21:34:08.579Z,83.89
2023-04-02T21:36:42.493Z,83.82
2023-04-02T21:39:18.878Z,83.39
2023-04-02T21:41:50.734Z,82.99
2023-04-02T21:44:23.785Z,82.57
2023-04-02T21:46:54.117Z,82.61
2023-04-02T21:49:23.168Z,82.62
2023-04-02T21:51:52.116Z,82.44
2023-04-02T21:54:20.273Z,82.34
2023-04-02T21:56:49.152Z,82.09
2023-04-02T21:59:18.280Z,81.97
2023-04-02T22:01:49.526Z,81.69
2023-04-02T22:04:26.089Z,81.56
2023-04-02T22:06:54.494Z,81.41
2023-04-02T22:09:26.638Z,81.14
2023-04-02T22:11:59.500Z,80.33
2023-04-02T22:14:28.611Z,80.25
2023-04-02T22:16:59.881Z,80.04
2023-04-02T22:19:28.340Z,80.13
2023-04-02T22:21:56.938Z,80.22
2023-04-02T22:24:25.529Z,80.24
2023-04-02T22:26:54.243Z,79.94
2023-04-02T22:29:22.480Z,80.08
2023-04-02T22:31:50.585Z,79.90
2023-04-02T22:34:18.920Z,80.03
2023-04-02T22:36:47.537Z,79.78
2023-04-02T22:39:16.954Z,79.52
2023-04-02T22:41:45.179Z,79.11
2023-04-02T22:44:15.461Z,79.12
2023-04-02T22:46:43.642Z,79.00
2023-04-02T22:49:12.047Z,78.95
2023-04-02T22:51:40.137Z,78.58
2023-04-02T22:54:08.090Z,78.64
2023-04-02T22:56:40.670Z,78.69
2023-04-02T22:59:08.669Z,78.48
2023-04-02T23:01:36.956Z,78.63
2023-04-02T23:04:05.637Z,78.59
2023-04-02T23:06:33.954Z,78.23
2023-04-02T23:09:02.080Z,78.14
2023-04-02T23:11:30.113Z,78.06
2023-04-02T23:13:58.584Z,77.79
2023-04-02T23:16:28.997Z,77.70
2023-04-02T23:18:58.373Z,77.54
2023-04-02T23:21:27.149Z,77.34
2023-04-02T23:23:55.419Z,77.19
2023-04-02T23:26:27.824Z,77.21
2023-04-02T23:28:57.026Z,77.53
2023-04-02T23:31:25.309Z,77.44
2023-04-02T23:33:53.659Z,76.67
2023-04-02T23:36:29.855Z,76.89
2023-04-02T23:39:01.832Z,76.73
2023-04-02T23:41:31.409Z,76.58
2023-04-02T23:43:59.765Z,76.55
2023-04-02T23:46:29.055Z,76.35
2023-04-02T23:48:57.987Z,76.57
2023-04-02T23:51:26.757Z,75.94
2023-04-02T23:53:55.702Z,76.13
2023-04-02T23:56:24.241Z,76.12
2023-04-02T23:58:52.252Z,76.18
